createdAt,value
2023-08-11T00:02:59.075Z,49.46
2023-08-11T00:06:02.093Z,49.77
2023-08-11T00:09:08.754Z,49.78
2023-08-11T00:12:11.618Z,49.78
2023-08-11T00:15:14.480Z,50.05
2023-08-11T00:18:17.354Z,50.21
2023-08-11T00:21:20.208Z,50.31
2023-08-11T00:24:23.110Z,50.26
2023-08-11T00:27:25.964Z,50.31
2023-08-11T00:30:29.153Z,50.55
2023-08-11T00:33:32.117Z,50.62
2023-08-11T00:36:35.663Z,50.70
2023-08-11T00:39:40.821Z,50.70
2023-08-11T00:42:43.901Z,50.70
2023-08-11T00:45:50.626Z,50.98
2023-08-11T00:48:56.392Z,50.98
2023-08-11T00:51:59.991Z,51.00
2023-08-11T00:55:03.068Z,51.00
2023-08-11T00:58:07.349Z,51.16
2023-08-11T01:01:11.515Z,51.32
2023-08-11T01:04:14.523Z,51.14
2023-08-11T01:07:26.310Z,51.16
2023-08-11T01:10:39.214Z,51.39
2023-08-11T01:13:50.520Z,51.28
2023-08-11T01:16:55.632Z,51.15
2023-08-11T01:19:59.889Z,51.20
2023-08-11T01:23:06.335Z,51.48
2023-08-11T01:26:09.514Z,51.33
2023-08-11T01:29:19.854Z,51.37
2023-08-11T01:32:22.620Z,51.49
2023-08-11T01:35:38.184Z,51.54
2023-08-11T01:38:43.523Z,51.39
2023-08-11T01:41:47.006Z,51.48
2023-08-11T01:44:49.933Z,51.38
2023-08-11T01:47:53.160Z,51.32
2023-08-11T01:50:56.116Z,51.40
2023-08-11T01:53:59.055Z,51.31
2023-08-11T01:57:02.364Z,51.27
2023-08-11T02:00:11.980Z,51.45
2023-08-11T02:03:16.256Z,51.45
2023-08-11T02:06:19.265Z,51.50
2023-08-11T02:09:22.344Z,51.50
2023-08-11T02:12:25.104Z,51.37
2023-08-11T02:15:28.024Z,51.44
2023-08-11T02:18:30.841Z,51.46
2023-08-11T02:21:38.834Z,51.46
2023-08-11T02:24:41.694Z,51.44
2023-08-11T02:27:45.356Z,51.49
2023-08-11T02:30:48.162Z,51.32
2023-08-11T02:33:51.231Z,51.56
2023-08-11T02:36:54.093Z,51.40
2023-08-11T02:39:57.070Z,51.61
2023-08-11T02:43:04.037Z,51.48
2023-08-11T02:46:10.157Z,51.47
2023-08-11T02:49:13.052Z,51.29
2023-08-11T02:52:16.031Z,51.32
2023-08-11T02:55:21.358Z,51.13
2023-08-11T02:58:24.209Z,51.26
2023-08-11T03:01:27.357Z,51.04
2023-08-11T03:04:30.415Z,51.16
2023-08-11T03:07:33.344Z,51.01
2023-08-11T03:10:43.415Z,51.12
2023-08-11T03:13:55.567Z,51.20
2023-08-11T03:16:58.539Z,51.09
2023-08-11T03:20:01.408Z,51.28
2023-08-11T03:23:05.701Z,51.24
2023-08-11T03:26:08.480Z,51.21
2023-08-11T03:29:11.285Z,51.34
2023-08-11T03:32:14.145Z,51.29
2023-08-11T03:35:18.789Z,51.31
2023-08-11T03:38:22.956Z,51.19
2023-08-11T03:41:26.191Z,51.36
2023-08-11T03:44:29.059Z,51.30
2023-08-11T03:47:31.858Z,51.41
2023-08-11T03:50:34.802Z,51.29
2023-08-11T03:53:37.998Z,51.18
2023-08-11T03:56:40.957Z,51.37
2023-08-11T03:59:44.433Z,51.57
2023-08-11T04:02:47.538Z,51.55
2023-08-11T04:05:50.785Z,51.63
2023-08-11T04:08:53.859Z,51.63
2023-08-11T04:11:57.356Z,51.49
2023-08-11T04:15:00.729Z,51.49
2023-08-11T04:18:04.184Z,51.52
2023-08-11T04:21:07.340Z,51.64
2023-08-11T04:24:10.205Z,51.51
2023-08-11T04:27:15.687Z,51.52
2023-08-11T04:30:19.411Z,51.71
2023-08-11T04:33:22.499Z,51.80
2023-08-11T04:36:25.534Z,51.64
2023-08-11T04:39:28.595Z,51.67
2023-08-11T04:42:31.358Z,51.54
2023-08-11T04:45:34.132Z,51.65
2023-08-11T04:48:37.126Z,51.58
2023-08-11T04:51:40.205Z,51.57
2023-08-11T04:54:43.045Z,51.67
2023-08-11T04:57:47.242Z,51.58
2023-08-11T05:00:53.016Z,51.50
2023-08-11T05:03:57.266Z,51.42
2023-08-11T05:07:02.728Z,51.30
2023-08-11T05:10:11.436Z,51.45
2023-08-11T05:13:14.436Z,51.53
2023-08-11T05:16:17.243Z,51.26
2023-08-11T05:19:20.442Z,51.36
2023-08-11T05:22:23.610Z,51.32
2023-08-11T05:25:26.795Z,51.18
2023-08-11T05:28:29.757Z,51.14
2023-08-11T05:31:35.010Z,51.17
2023-08-11T05:34:37.748Z,51.20
2023-08-11T05:37:42.552Z,51.22
2023-08-11T05:40:45.436Z,51.03
2023-08-11T05:43:48.204Z,51.15
2023-08-11T05:46:51.069Z,51.00
2023-08-11T05:49:54.981Z,51.07
2023-08-11T05:52:58.104Z,51.06
2023-08-11T05:56:01.796Z,51.10
2023-08-11T05:59:04.702Z,51.11
2023-08-11T06:02:09.016Z,51.18
2023-08-11T06:05:13.649Z,51.30
2023-08-11T06:08:18.732Z,51.19
2023-08-11T06:11:22.841Z,51.24
2023-08-11T06:14:25.698Z,51.41
2023-08-11T06:17:28.598Z,51.48
2023-08-11T06:20:40.974Z,51.55
2023-08-11T06:23:45.346Z,51.70
2023-08-11T06:26:49.564Z,51.80
2023-08-11T06:29:52.437Z,51.78
2023-08-11T06:32:55.468Z,51.87
2023-08-11T06:36:01.049Z,51.99
2023-08-11T06:39:04.017Z,51.91
2023-08-11T06:42:06.986Z,51.87
2023-08-11T06:45:10.580Z,51.93
2023-08-11T06:48:13.531Z,52.13
2023-08-11T06:51:16.515Z,52.39
2023-08-11T06:54:19.333Z,52.41
2023-08-11T06:57:22.710Z,52.72
2023-08-11T07:00:25.739Z,52.52
2023-08-11T07:03:28.789Z,52.70
2023-08-11T07:06:32.098Z,52.66
2023-08-11T07:09:35.214Z,52.76
2023-08-11T07:12:38.140Z,52.61
2023-08-11T07:15:44.083Z,52.61
2023-08-11T07:18:46.955Z,52.58
2023-08-11T07:21:49.731Z,52.73
2023-08-11T07:24:52.590Z,52.54
2023-08-11T07:27:55.881Z,52.74
2023-08-11T07:30:58.744Z,52.56
2023-08-11T07:34:01.604Z,52.61
2023-08-11T07:37:05.875Z,52.63
2023-08-11T07:40:09.946Z,52.72
2023-08-11T07:43:15.736Z,52.73
2023-08-11T07:46:18.646Z,52.75
2023-08-11T07:49:21.486Z,52.76
2023-08-11T07:52:24.216Z,52.82
2023-08-11T07:55:27.059Z,53.01
2023-08-11T07:58:29.987Z,52.95
2023-08-11T08:01:33.297Z,52.91
2023-08-11T08:04:36.350Z,52.77
2023-08-11T08:07:40.335Z,52.86
2023-08-11T08:10:48.020Z,52.88
2023-08-11T08:13:51.186Z,52.85
2023-08-11T08:16:54.370Z,52.80
2023-08-11T08:19:57.247Z,52.74
2023-08-11T08:23:00.011Z,52.77
2023-08-11T08:26:02.877Z,52.78
2023-08-11T08:29:05.911Z,52.87
2023-08-11T08:32:09.044Z,53.00
2023-08-11T08:35:12.008Z,53.00
2023-08-11T08:38:14.873Z,52.77
2023-08-11T08:41:21.437Z,52.92
2023-08-11T08:44:25.053Z,52.98
2023-08-11T08:47:28.788Z,53.03
2023-08-11T08:50:32.044Z,52.99
2023-08-11T08:53:37.510Z,52.67
2023-08-11T08:56:41.089Z,52.74
2023-08-11T08:59:43.965Z,52.58
2023-08-11T09:02:49.682Z,52.87
2023-08-11T09:05:55.498Z,52.74
2023-08-11T09:09:00.666Z,54.55
2023-08-11T09:12:03.943Z,52.01
2023-08-11T09:15:13.358Z,52.91
2023-08-11T09:18:20.346Z,53.76
2023-08-11T09:21:26.551Z,54.09
2023-08-11T09:24:30.707Z,53.23
2023-08-11T09:27:34.250Z,53.24
2023-08-11T09:30:37.090Z,53.23
2023-08-11T09:33:39.895Z,52.89
2023-08-11T09:36:46.032Z,52.73
2023-08-11T09:39:57.316Z,52.31
2023-08-11T09:43:13.297Z,51.55
2023-08-11T09:46:26.001Z,50.56
2023-08-11T09:49:31.897Z,50.10
2023-08-11T09:52:37.056Z,49.88
2023-08-11T09:55:42.031Z,47.93
2023-08-11T09:58:49.437Z,47.83
2023-08-11T10:01:55.265Z,49.02
2023-08-11T10:05:08.371Z,49.76
2023-08-11T10:08:16.664Z,50.37
2023-08-11T10:11:21.257Z,50.66
2023-08-11T10:14:27.773Z,50.77
2023-08-11T10:17:32.317Z,51.01
2023-08-11T10:20:35.691Z,51.39
2023-08-11T10:23:39.172Z,51.15
2023-08-11T10:26:43.351Z,51.06
2023-08-11T10:29:50.309Z,50.91
2023-08-11T10:33:04.141Z,50.93
2023-08-11T10:36:08.371Z,49.98
2023-08-11T10:39:18.915Z,49.80
2023-08-11T10:42:22.082Z,49.84
2023-08-11T10:45:28.721Z,49.53
2023-08-11T10:48:31.912Z,49.30
2023-08-11T10:51:37.418Z,49.12
2023-08-11T10:54:51.166Z,48.51
2023-08-11T10:58:16.236Z,48.12
2023-08-11T11:01:20.560Z,48.86
2023-08-11T11:04:27.819Z,48.38
2023-08-11T11:07:40.019Z,46.91
2023-08-11T11:10:49.973Z,48.19
2023-08-11T11:13:53.912Z,48.10
2023-08-11T11:17:00.469Z,47.73
2023-08-11T11:20:04.197Z,47.93
2023-08-11T11:23:07.446Z,48.16
2023-08-11T11:26:12.805Z,48.13
2023-08-11T11:29:16.196Z,47.89
2023-08-11T11:32:19.026Z,46.95
2023-08-11T11:35:26.160Z,47.04
2023-08-11T11:38:29.060Z,46.67
2023-08-11T11:41:32.151Z,45.64
2023-08-11T11:44:36.129Z,46.24
2023-08-11T11:47:39.027Z,43.78
2023-08-11T11:50:42.277Z,45.30
2023-08-11T11:53:46.304Z,45.95
2023-08-11T11:57:02.106Z,45.94
2023-08-11T12:00:17.600Z,44.98
2023-08-11T12:03:22.410Z,45.55
2023-08-11T12:06:29.231Z,45.85
2023-08-11T12:09:33.792Z,46.17
2023-08-11T12:12:36.506Z,45.80
2023-08-11T12:15:40.236Z,45.62
2023-08-11T12:18:43.304Z,45.72
2023-08-11T12:21:47.826Z,45.76
2023-08-11T12:24:50.682Z,46.19
2023-08-11T12:27:57.441Z,46.33
2023-08-11T12:31:00.319Z,45.92
2023-08-11T12:34:03.179Z,45.82
2023-08-11T12:37:06.156Z,45.13
2023-08-11T12:40:12.158Z,44.33
2023-08-11T12:43:16.818Z,45.06
2023-08-11T12:46:19.740Z,45.06
2023-08-11T12:49:23.174Z,45.33
2023-08-11T12:52:26.037Z,44.88
2023-08-11T12:55:30.757Z,44.67
2023-08-11T12:58:35.967Z,43.11
2023-08-11T13:01:38.771Z,44.10
2023-08-11T13:04:41.611Z,44.81
2023-08-11T13:07:45.864Z,44.61
2023-08-11T13:10:48.777Z,43.54
2023-08-11T13:13:51.754Z,42.96
2023-08-11T13:16:55.041Z,42.70
2023-08-11T13:19:57.896Z,43.28
2023-08-11T13:23:04.445Z,43.51
2023-08-11T13:26:07.326Z,43.19
2023-08-11T13:29:12.323Z,42.28
2023-08-11T13:32:16.508Z,42.15
2023-08-11T13:35:21.670Z,43.13
2023-08-11T13:38:31.900Z,40.87
2023-08-11T13:41:34.776Z,40.57
2023-08-11T13:44:37.640Z,42.42
2023-08-11T13:47:42.593Z,41.21
2023-08-11T13:50:45.799Z,41.76
2023-08-11T13:53:51.163Z,41.91
2023-08-11T13:56:55.065Z,41.52
2023-08-11T13:59:59.970Z,39.94
2023-08-11T14:03:03.093Z,40.65
2023-08-11T14:06:06.340Z,40.58
2023-08-11T14:09:09.184Z,40.44
2023-08-11T14:12:12.316Z,40.71
2023-08-11T14:15:15.343Z,40.71
2023-08-11T14:18:18.213Z,39.83
2023-08-11T14:21:21.081Z,39.22
2023-08-11T14:24:23.845Z,39.26
2023-08-11T14:27:27.403Z,38.82
2023-08-11T14:30:30.409Z,39.13
2023-08-11T14:33:33.257Z,38.93
2023-08-11T14:36:38.524Z,38.45
2023-08-11T14:39:41.377Z,37.84
2023-08-11T14:42:44.355Z,37.03
2023-08-11T14:45:47.210Z,37.79
2023-08-11T14:48:50.081Z,37.41
2023-08-11T14:51:55.213Z,37.96
2023-08-11T14:55:04.312Z,37.19
2023-08-11T14:58:07.504Z,37.01
2023-08-11T15:01:10.380Z,36.75
2023-08-11T15:04:13.247Z,36.78
2023-08-11T15:07:16.127Z,37.23
2023-08-11T15:10:20.820Z,35.32
2023-08-11T15:13:23.790Z,37.23
2023-08-11T15:16:26.803Z,37.01
2023-08-11T15:19:32.288Z,36.08
2023-08-11T15:22:35.063Z,35.81
2023-08-11T15:25:38.174Z,36.27
2023-08-11T15:28:41.205Z,35.83
2023-08-11T15:31:44.082Z,36.31
2023-08-11T15:34:46.848Z,37.17
2023-08-11T15:37:50.259Z,37.30
2023-08-11T15:40:53.100Z,36.82
2023-08-11T15:43:55.893Z,37.06
2023-08-11T15:47:11.321Z,37.24
2023-08-11T15:50:14.209Z,36.82
2023-08-11T15:53:16.959Z,36.87
2023-08-11T15:56:19.723Z,35.11
2023-08-11T15:59:22.603Z,36.47
2023-08-11T16:02:25.763Z,35.88
2023-08-11T16:05:28.743Z,36.39
2023-08-11T16:08:31.514Z,37.01
2023-08-11T16:11:35.417Z,37.53
2023-08-11T16:14:38.274Z,37.70
2023-08-11T16:17:42.066Z,37.77
2023-08-11T16:20:44.945Z,37.50
2023-08-11T16:23:49.613Z,37.46
2023-08-11T16:26:52.842Z,36.89
2023-08-11T16:29:55.594Z,37.47
2023-08-11T16:32:58.422Z,37.64
2023-08-11T16:36:01.257Z,37.72
2023-08-11T16:39:04.205Z,36.86
2023-08-11T16:42:08.491Z,37.57
2023-08-11T16:45:11.534Z,37.16
2023-08-11T16:48:15.374Z,36.27
2023-08-11T16:51:19.580Z,37.74
2023-08-11T16:54:22.446Z,38.24
2023-08-11T16:57:25.418Z,38.33
2023-08-11T17:00:28.177Z,37.91
2023-08-11T17:03:31.379Z,37.40
2023-08-11T17:06:34.536Z,37.85
2023-08-11T17:09:38.125Z,37.91
2023-08-11T17:12:40.993Z,37.67
2023-08-11T17:15:43.990Z,37.90
2023-08-11T17:18:50.672Z,38.21
2023-08-11T17:21:54.325Z,38.29
2023-08-11T17:24:59.223Z,38.51
2023-08-11T17:28:01.908Z,38.28
2023-08-11T17:31:04.932Z,38.62
2023-08-11T17:34:07.732Z,38.61
2023-08-11T17:37:10.504Z,38.79
2023-08-11T17:40:13.370Z,38.72
2023-08-11T17:43:16.853Z,38.53
2023-08-11T17:46:20.280Z,38.48
2023-08-11T17:49:23.520Z,38.18
2023-08-11T17:52:26.382Z,38.61
2023-08-11T17:55:29.257Z,38.81
2023-08-11T17:58:32.338Z,39.15
2023-08-11T18:01:35.358Z,39.39
2023-08-11T18:04:38.385Z,39.91
2023-08-11T18:07:41.255Z,40.06
2023-08-11T18:10:44.121Z,40.27
2023-08-11T18:13:47.501Z,40.57
2023-08-11T18:16:50.437Z,40.79
2023-08-11T18:19:53.655Z,40.96
2023-08-11T18:22:59.185Z,41.32
2023-08-11T18:26:02.364Z,41.62
2023-08-11T18:29:05.630Z,42.11
2023-08-11T18:32:09.709Z,42.45
2023-08-11T18:35:12.816Z,42.76
2023-08-11T18:38:15.583Z,42.96
2023-08-11T18:41:19.372Z,43.26
2023-08-11T18:44:23.022Z,43.34
2023-08-11T18:47:25.796Z,43.48
2023-08-11T18:50:28.697Z,43.77
2023-08-11T18:53:31.467Z,43.89
2023-08-11T18:56:37.340Z,44.23
2023-08-11T18:59:40.800Z,44.18
2023-08-11T19:02:43.608Z,44.41
2023-08-11T19:05:46.529Z,44.62
2023-08-11T19:08:49.296Z,44.62
2023-08-11T19:11:52.547Z,44.63
2023-08-11T19:14:55.462Z,44.86
2023-08-11T19:17:58.246Z,44.96
2023-08-11T19:21:01.198Z,45.01
2023-08-11T19:24:04.575Z,44.89
2023-08-11T19:27:07.440Z,45.07
2023-08-11T19:30:11.274Z,45.15
2023-08-11T19:33:14.159Z,45.14
2023-08-11T19:36:17.070Z,45.21
2023-08-11T19:39:19.940Z,45.35
2023-08-11T19:42:22.699Z,45.34
2023-08-11T19:45:25.474Z,45.12
2023-08-11T19:48:28.341Z,45.26
2023-08-11T19:51:32.484Z,45.36
2023-08-11T19:54:35.512Z,45.44
2023-08-11T19:57:38.240Z,45.32
2023-08-11T20:00:41.354Z,45.31
2023-08-11T20:03:44.123Z,45.39
2023-08-11T20:06:47.302Z,45.36
2023-08-11T20:09:50.065Z,45.31
2023-08-11T20:12:58.150Z,45.32
2023-08-11T20:16:02.214Z,45.32
2023-08-11T20:19:05.126Z,45.36
2023-08-11T20:22:07.911Z,45.56
2023-08-11T20:25:10.866Z,45.50
2023-08-11T20:28:13.707Z,45.44
2023-08-11T20:31:16.539Z,45.49
2023-08-11T20:34:19.375Z,45.63
2023-08-11T20:37:22.602Z,45.61
2023-08-11T20:40:25.520Z,45.78
2023-08-11T20:43:28.288Z,45.82
2023-08-11T20:46:31.055Z,45.76
2023-08-11T20:49:33.826Z,45.89
2023-08-11T20:52:36.592Z,45.85
2023-08-11T20:55:39.462Z,45.90
2023-08-11T20:58:42.231Z,46.00
2023-08-11T21:01:45.100Z,46.12
2023-08-11T21:04:47.881Z,46.18
2023-08-11T21:07:50.755Z,46.27
2023-08-11T21:10:53.733Z,46.20
2023-08-11T21:18:03.452Z,46.40
2023-08-11T21:21:06.277Z,46.28
2023-08-11T21:24:09.147Z,46.44
2023-08-11T21:27:12.241Z,46.46
2023-08-11T21:30:16.120Z,46.56
2023-08-11T21:33:18.987Z,46.48
2023-08-11T21:36:21.763Z,46.58
2023-08-11T21:39:24.623Z,46.44
2023-08-11T21:46:33.468Z,46.74
2023-08-11T21:53:29.392Z,46.99
2023-08-11T21:56:32.258Z,47.07
2023-08-11T21:59:35.257Z,47.05
2023-08-11T22:02:38.895Z,47.20
2023-08-11T22:05:42.100Z,47.36
2023-08-11T22:08:45.169Z,47.51
2023-08-11T22:11:48.048Z,47.43
2023-08-11T22:14:50.809Z,47.67
2023-08-11T22:17:55.042Z,47.60
2023-08-11T22:20:57.875Z,47.78
2023-08-11T22:24:00.601Z,48.04
2023-08-11T22:27:03.987Z,48.02
2023-08-11T22:30:08.227Z,48.11
2023-08-11T22:33:11.490Z,48.09
2023-08-11T22:36:14.387Z,48.17
2023-08-11T22:39:17.245Z,48.35
2023-08-11T22:42:22.398Z,48.32
2023-08-11T22:45:25.152Z,48.30
2023-08-11T22:48:28.169Z,48.17
2023-08-11T22:51:31.294Z,48.21
2023-08-11T22:54:34.263Z,48.27
2023-08-11T22:57:37.023Z,48.37
2023-08-11T23:00:40.001Z,48.33
2023-08-11T23:03:42.863Z,48.40
2023-08-11T23:06:45.632Z,48.33
2023-08-11T23:09:48.773Z,48.35
2023-08-11T23:12:51.689Z,48.64
2023-08-11T23:15:54.576Z,48.46
2023-08-11T23:18:57.318Z,48.58
2023-08-11T23:22:00.085Z,48.42
2023-08-11T23:25:03.775Z,48.50
2023-08-11T23:28:06.757Z,48.59
2023-08-11T23:31:09.638Z,48.65
2023-08-11T23:34:12.442Z,48.65
2023-08-11T23:37:15.270Z,48.56
2023-08-11T23:40:19.671Z,48.58
2023-08-11T23:43:22.636Z,48.66
2023-08-11T23:46:25.396Z,48.72
2023-08-11T23:49:28.177Z,48.69
2023-08-11T23:52:32.167Z,48.79
2023-08-11T23:55:35.266Z,48.84
2023-08-11T23:58:38.111Z,48.91
